KBVO/BVO METAR and TAF weather

Enter ICAO airport designator
Station Type Date Time Source
KBVO METAR 2018/01/21 11:53 UTC NOAA

KBVO 211153Z AUTO 19007KT 10SM CLR 12/10 A2981 RMK AO2 SLP087 T01170100 10133 20111 55003


Station Type Date Time Source
KBVO Decoded METAR 2018/01/21 11:53 UTC NOAA

BARTLESVILLE MUNICIPAL AIRPORT , OK, United States (KBVO) 36-46N 96-01W 210M
Jan 21, 2018 - 06:53 AM EST / 2018.01.21 1153 UTC
Wind: from the S (190 degrees) at 8 MPH (7 KT):0
Visibility: 10 mile(s):0
Sky conditions: clear
Temperature: 53.1 F (11.7 C)
Dew Point: 50.0 F (10.0 C)
Relative Humidity: 89%
Pressure (altimeter): 29.81 in. Hg (1009 hPa)
Pressure tendency: 0.01 inches (0.3 hPa) lower than three hours ago
ob: KBVO 211153Z AUTO 19007KT 10SM CLR 12/10 A2981 RMK AO2 SLP087 T01170100 10133 20111 55003
cycle: 12

Station Type Date Time Source
KBVO TAF 2018/01/21 12:30 UTC NOAA

TAF KBVO 211128Z 2112/2212 18007KT P6SM SKC
TEMPO 2112/2114 BKN015
FM211400 18011KT P6SM BKN015
FM211800 19014G22KT P6SM BKN025
FM220300 22011KT P6SM BKN100


Example: see airport list